Time;durP1;ratioP1;P1;durP2;ratioP2;P2;SDS_P1;SDS_P2;PMS_P1;PMS_P2;Temp;Humidity;BMP_temperature;BMP_pressure;BME280_temperature;BME280_humidity;BME280_pressure;Samples;Min_cycle;Max_cycle;Signal;HPM_P1;HPM_P2
2022/01/06 00:02:21;;;;;;;16.70;2.67;;;;;;;;;;5035945;28;20060;-85
2022/01/06 00:04:48;;;;;;;13.82;3.20;;;;;;;;;;5057628;28;20155;-85
2022/01/06 00:07:14;;;;;;;13.00;1.63;;;;;;;;;;5039169;28;20145;-85
2022/01/06 00:09:40;;;;;;;18.10;3.00;;;;;;;;;;5039186;28;20063;-85
2022/01/06 00:12:09;;;;;;;15.70;2.25;;;;;;;;;;5053988;28;20107;-86
2022/01/06 00:25:49;;;;;;;17.70;2.80;;;;;;;;;;5018135;28;20056;-86
2022/01/06 00:28:15;;;;;;;17.73;2.35;;;;;;;;;;5039242;28;20029;-85
2022/01/06 00:30:41;;;;;;;15.32;2.05;;;;;;;;;;5036630;28;20037;-86
2022/01/06 00:33:08;;;;;;;15.07;2.00;;;;;;;;;;5032573;28;20033;-85
2022/01/06 00:35:34;;;;;;;11.15;1.92;;;;;;;;;;5051397;28;20156;-86
2022/01/06 00:38:01;;;;;;;9.80;2.03;;;;;;;;;;5038817;28;20029;-86
2022/01/06 00:40:27;;;;;;;21.67;2.85;;;;;;;;;;5037649;28;20022;-85
2022/01/06 00:42:53;;;;;;;17.52;2.63;;;;;;;;;;5047284;28;20040;-85
2022/01/06 00:45:19;;;;;;;14.13;1.95;;;;;;;;;;5054989;28;20052;-86
2022/01/06 00:47:45;;;;;;;14.13;2.30;;;;;;;;;;5052457;28;20183;-85
2022/01/06 00:50:12;;;;;;;11.07;1.60;;;;;;;;;;5051488;28;20067;-85
2022/01/06 00:52:38;;;;;;;16.63;2.33;;;;;;;;;;5048633;28;20088;-85
2022/01/06 00:55:04;;;;;;;14.45;1.75;;;;;;;;;;5038096;28;20036;-86
2022/01/06 00:57:31;;;;;;;14.27;1.88;;;;;;;;;;5052670;28;20037;-86
2022/01/06 00:59:57;;;;;;;16.50;3.30;;;;;;;;;;5039094;28;20309;-86
2022/01/06 01:02:23;;;;;;;16.63;3.10;;;;;;;;;;5051899;28;20045;-86
2022/01/06 01:04:50;;;;;;;12.35;2.58;;;;;;;;;;5052123;28;20114;-86
2022/01/06 01:07:16;;;;;;;17.95;2.80;;;;;;;;;;5036512;28;20064;-85
2022/01/06 01:09:42;;;;;;;16.20;2.65;;;;;;;;;;5034726;28;20021;-86
2022/01/06 01:12:09;;;;;;;21.45;2.58;;;;;;;;;;5051221;28;20053;-85
2022/01/06 01:14:45;;;;;;;15.38;2.20;;;;;;;;;;5049310;28;20063;-85
2022/01/06 01:17:15;;;;;;;15.38;2.65;;;;;;;;;;5050488;28;20285;-85
2022/01/06 01:19:41;;;;;;;15.50;2.47;;;;;;;;;;5033464;28;20219;-85
2022/01/06 01:22:08;;;;;;;23.52;1.90;;;;;;;;;;5048306;28;20244;-85
2022/01/06 01:24:34;;;;;;;17.45;1.77;;;;;;;;;;5032958;28;20041;-85
2022/01/06 01:27:01;;;;;;;17.02;3.80;;;;;;;;;;5034733;28;20071;-85
2022/01/06 01:29:30;;;;;;;15.38;2.25;;;;;;;;;;5041104;28;20029;-85
2022/01/06 01:31:57;;;;;;;13.90;2.92;;;;;;;;;;5039383;28;20037;-86
2022/01/06 01:34:26;;;;;;;17.90;2.13;;;;;;;;;;5041089;28;20289;-86
2022/01/06 01:36:54;;;;;;;17.85;3.58;;;;;;;;;;5054632;28;20025;-85
2022/01/06 01:39:21;;;;;;;15.75;2.45;;;;;;;;;;5058015;28;20032;-85
2022/01/06 01:41:47;;;;;;;24.15;2.47;;;;;;;;;;5057690;28;20025;-85
2022/01/06 01:44:16;;;;;;;29.35;2.58;;;;;;;;;;5052276;28;20182;-84
2022/01/06 01:46:45;;;;;;;20.88;4.03;;;;;;;;;;5058002;28;20334;-85
2022/01/06 01:51:51;;;;;;;12.98;1.20;;;;;;;;;;5056078;28;20127;-85
2022/01/06 01:54:17;;;;;;;11.63;2.75;;;;;;;;;;5035469;28;20029;-85
2022/01/06 01:56:43;;;;;;;13.55;2.90;;;;;;;;;;5037396;28;20159;-85
2022/01/06 01:59:10;;;;;;;10.77;1.83;;;;;;;;;;5057882;28;20309;-85
2022/01/06 02:01:36;;;;;;;15.40;2.20;;;;;;;;;;5057755;28;20017;-85
2022/01/06 02:04:03;;;;;;;11.18;1.77;;;;;;;;;;5035130;28;20476;-85
2022/01/06 02:06:29;;;;;;;12.55;2.05;;;;;;;;;;5050447;28;20048;-85
2022/01/06 02:08:55;;;;;;;12.15;1.92;;;;;;;;;;5054599;28;20040;-86
2022/01/06 02:11:22;;;;;;;35.22;3.25;;;;;;;;;;5057057;28;20049;-85
2022/01/06 02:13:48;;;;;;;16.52;2.00;;;;;;;;;;5054556;28;20106;-85
2022/01/06 02:16:18;;;;;;;9.57;1.52;;;;;;;;;;5035481;28;20313;-84
2022/01/06 02:18:44;;;;;;;19.52;2.22;;;;;;;;;;5050915;28;20033;-84
2022/01/06 02:21:10;;;;;;;22.27;2.50;;;;;;;;;;5056255;28;20037;-85
2022/01/06 02:23:36;;;;;;;21.48;2.50;;;;;;;;;;5050258;28;20037;-85
2022/01/06 02:26:03;;;;;;;15.60;1.85;;;;;;;;;;5055819;28;20072;-84
2022/01/06 02:28:29;;;;;;;15.77;3.72;;;;;;;;;;5040569;28;20251;-85
2022/01/06 02:30:57;;;;;;;17.50;2.53;;;;;;;;;;5036402;28;20036;-85
2022/01/06 02:33:24;;;;;;;12.23;3.05;;;;;;;;;;5054395;28;20029;-85
2022/01/06 02:35:51;;;;;;;20.30;2.50;;;;;;;;;;5040405;28;20054;-85
2022/01/06 02:38:18;;;;;;;19.20;2.25;;;;;;;;;;5041846;28;20037;-85
2022/01/06 02:40:44;;;;;;;16.38;1.88;;;;;;;;;;5037719;28;20032;-85
2022/01/06 02:43:13;;;;;;;15.13;1.95;;;;;;;;;;5040986;28;20086;-85
2022/01/06 02:45:39;;;;;;;15.45;3.25;;;;;;;;;;5038959;28;20029;-85
2022/01/06 02:48:08;;;;;;;21.85;2.67;;;;;;;;;;5040705;28;20133;-85
2022/01/06 02:50:39;;;;;;;15.38;3.28;;;;;;;;;;5036326;28;20251;-85
2022/01/06 02:53:06;;;;;;;17.48;1.92;;;3.00;99.90;;;;;;5056745;28;20222;-85
2022/01/06 02:55:34;;;;;;;14.52;2.92;;;;;;;;;;5040287;28;20391;-85
2022/01/06 02:58:00;;;;;;;23.23;3.45;;;;;;;;;;5053070;28;20036;-85
2022/01/06 03:00:27;;;;;;;23.58;2.75;;;;;;;;;;5057242;28;20044;-85
2022/01/06 03:02:53;;;;;;;20.77;2.05;;;;;;;;;;5056541;28;20037;-85
2022/01/06 03:05:19;;;;;;;16.95;2.20;;;;;;;;;;5057776;28;20103;-85
2022/01/06 03:07:46;;;;;;;20.27;1.90;;;;;;;;;;5052762;28;20037;-85
2022/01/06 03:10:15;;;;;;;25.27;3.28;;;2.90;99.90;;;;;;5037980;28;20329;-85
2022/01/06 03:12:43;;;;;;;20.75;2.65;;;;;;;;;;5052684;28;20087;-85
2022/01/06 03:15:11;;;;;;;27.73;2.92;;;;;;;;;;5037630;28;20079;-85
2022/01/06 03:17:38;;;;;;;21.30;2.40;;;;;;;;;;5038579;28;20083;-85
2022/01/06 03:20:05;;;;;;;23.02;3.10;;;;;;;;;;5038979;28;20186;-84
2022/01/06 03:22:31;;;;;;;22.27;2.70;;;;;;;;;;5052216;28;21083;-85
2022/01/06 03:24:57;;;;;;;19.10;2.53;;;;;;;;;;5053579;28;20106;-85
2022/01/06 03:27:24;;;;;;;24.23;3.75;;;;;;;;;;5052590;28;20033;-85
2022/01/06 03:29:50;;;;;;;24.95;3.03;;;;;;;;;;5050930;28;20163;-85
2022/01/06 03:32:20;;;;;;;31.40;3.50;;;;;;;;;;5032454;28;20033;-85
2022/01/06 03:34:47;;;;;;;19.95;2.58;;;;;;;;;;5055153;28;20021;-85
2022/01/06 03:37:14;;;;;;;19.83;2.88;;;;;;;;;;5038053;28;20227;-84
2022/01/06 03:39:41;;;;;;;18.88;2.55;;;;;;;;;;5038897;28;20056;-85
2022/01/06 03:42:07;;;;;;;19.65;2.53;;;;;;;;;;5037547;28;20055;-85
2022/01/06 03:44:33;;;;;;;15.23;2.22;;;;;;;;;;5037914;28;20032;-85
2022/01/06 03:47:00;;;;;;;18.15;2.30;;;;;;;;;;5052794;28;20194;-85
2022/01/06 03:49:26;;;;;;;22.52;2.47;;;;;;;;;;5057264;28;20044;-85
2022/01/06 03:51:52;;;;;;;16.80;1.88;;;;;;;;;;5046656;28;20295;-83
2022/01/06 03:54:18;;;;;;;19.23;2.42;;;;;;;;;;5052077;28;21476;-83
2022/01/06 03:56:47;;;;;;;18.58;2.95;;;;;;;;;;5039098;28;20182;-84
2022/01/06 03:59:13;;;;;;;22.98;3.55;;;;;;;;;;5039252;28;20124;-83
2022/01/06 04:01:40;;;;;;;21.27;2.60;;;;;;;;;;5052427;28;20036;-83
2022/01/06 04:04:06;;;;;;;19.52;2.33;;;;;;;;;;5051864;28;20091;-85
2022/01/06 04:06:32;;;;;;;16.02;2.97;;;;;;;;;;5050795;28;20020;-84
2022/01/06 04:08:59;;;;;;;28.38;2.75;;;;;;;;;;5046714;28;20052;-84
2022/01/06 04:11:25;;;;;;;33.55;2.83;;;;;;;;;;5044908;28;20053;-85
2022/01/06 04:13:51;;;;;;;26.45;4.80;;;;;;;;;;5043612;28;20041;-85
2022/01/06 04:16:18;;;;;;;28.60;3.92;;;;;;;;;;5050562;28;20112;-84
2022/01/06 04:18:44;;;;;;;23.98;3.42;;;;;;;;;;5054535;28;20048;-84
2022/01/06 04:21:11;;;;;;;22.60;2.92;;;;;;;;;;5035524;28;20066;-83
2022/01/06 04:23:37;;;;;;;25.52;3.28;;;;;;;;;;5038119;28;20735;-84
2022/01/06 04:26:04;;;;;;;22.92;2.75;;;;;;;;;;5039389;28;20036;-84
2022/01/06 04:28:30;;;;;;;34.97;2.97;;;;;;;;;;5036269;28;20045;-84
2022/01/06 04:30:56;;;;;;;26.38;3.45;;;;;;;;;;5036587;28;20143;-83
2022/01/06 04:33:22;;;;;;;18.83;2.53;;;;;;;;;;5055389;28;20278;-83
2022/01/06 04:35:51;;;;;;;19.00;2.58;;;;;;;;;;5051425;28;20061;-83
2022/01/06 04:38:17;;;;;;;22.45;2.72;;;;;;;;;;5029754;28;20204;-83
2022/01/06 04:40:43;;;;;;;21.27;2.35;;;;;;;;;;5053340;28;20025;-83
2022/01/06 04:43:10;;;;;;;24.77;3.47;;;;;;;;;;5032757;28;20194;-83
2022/01/06 04:45:36;;;;;;;20.83;2.58;;;;;;;;;;5034839;28;20036;-83
2022/01/06 04:48:02;;;;;;;22.25;2.30;;;;;;;;;;5049434;28;20040;-83
2022/01/06 04:50:29;;;;;;;25.67;2.90;;;;;;;;;;5032264;28;20112;-83
2022/01/06 04:52:55;;;;;;;15.32;2.17;;;;;;;;;;5050697;28;20025;-83
2022/01/06 04:55:21;;;;;;;12.23;2.33;;;;;;;;;;5033797;28;20210;-83
2022/01/06 04:57:47;;;;;;;19.10;2.63;;;;;;;;;;5038341;28;20294;-82
2022/01/06 05:00:14;;;;;;;17.90;3.05;;;;;;;;;;5036953;28;20129;-82
2022/01/06 05:02:40;;;;;;;17.35;2.20;;;;;;;;;;5051483;28;20045;-83
2022/01/06 05:05:07;;;;;;;18.55;2.38;;;;;;;;;;5045236;28;20099;-83
2022/01/06 05:07:33;;;;;;;21.48;2.45;;;;;;;;;;5051789;28;20025;-83
2022/01/06 05:09:59;;;;;;;24.67;3.30;;;;;;;;;;5054222;28;20087;-83
2022/01/06 05:12:26;;;;;;;23.40;2.90;;;;;;;;;;5050814;28;20031;-82
2022/01/06 05:14:52;;;;;;;21.88;3.03;;;;;;;;;;5053593;28;20104;-83
2022/01/06 05:17:19;;;;;;;17.67;2.85;;;;;;;;;;5046708;28;20041;-83
2022/01/06 05:19:45;;;;;;;15.43;3.03;;;;;;;;;;5036880;28;20127;-83
2022/01/06 05:22:11;;;;;;;21.77;2.70;;;;;;;;;;5038294;28;20229;-83
2022/01/06 05:24:38;;;;;;;26.35;3.70;;;;;;;;;;5028953;28;20270;-83
2022/01/06 05:27:05;;;;;;;21.70;3.47;;;;;;;;;;5052442;28;20029;-83
2022/01/06 05:29:31;;;;;;;20.63;2.38;;;;;;;;;;5033492;28;20033;-83
2022/01/06 05:31:57;;;;;;;25.73;3.70;;;;;;;;;;5034033;28;20060;-85
2022/01/06 05:34:24;;;;;;;24.60;3.47;;;;;;;;;;5049137;28;20044;-83
2022/01/06 05:36:50;;;;;;;36.80;4.90;;;;;;;;;;5053964;28;20191;-83
2022/01/06 05:39:16;;;;;;;30.30;4.50;;;;;;;;;;5038813;28;20266;-83
2022/01/06 05:41:45;;;;;;;18.15;2.90;;;;;;;;;;5030615;28;20057;-83
2022/01/06 05:44:11;;;;;;;20.10;3.63;;;;;;;;;;5031451;28;20106;-83
2022/01/06 05:46:37;;;;;;;26.35;3.05;;;;;;;;;;5035490;28;20033;-83
2022/01/06 05:49:04;;;;;;;27.13;3.35;;;;;;;;;;5053418;28;20045;-83
2022/01/06 05:51:30;;;;;;;20.85;2.95;;;;;;;;;;5050388;28;20066;-83
2022/01/06 05:53:57;;;;;;;20.95;2.80;;;;;;;;;;5052772;28;20372;-83
2022/01/06 05:56:23;;;;;;;20.02;2.38;;;;;;;;;;5054301;28;20060;-86
2022/01/06 05:58:49;;;;;;;18.48;2.70;;;;;;;;;;5053222;28;20041;-83
2022/01/06 06:01:15;;;;;;;20.85;3.35;;;;;;;;;;5038523;28;20037;-83
2022/01/06 06:03:42;;;;;;;26.35;3.25;;;;;;;;;;5037070;28;20033;-83
2022/01/06 06:06:08;;;;;;;24.23;3.28;;;;;;;;;;5033910;28;20287;-83
2022/01/06 06:08:34;;;;;;;24.63;3.92;;;;;;;;;;5050215;28;20032;-83
2022/01/06 06:11:00;;;;;;;25.45;2.60;;;;;;;;;;5045814;28;20183;-83
2022/01/06 06:13:26;;;;;;;22.40;3.22;;;;;;;;;;5031963;28;20029;-83
2022/01/06 06:15:53;;;;;;;23.23;3.08;;;;;;;;;;5057003;28;20182;-83
2022/01/06 06:18:19;;;;;;;24.83;3.78;;;;;;;;;;5041511;28;20041;-83
2022/01/06 06:20:45;;;;;;;25.88;3.38;;;;;;;;;;5053609;28;20032;-83
2022/01/06 06:23:12;;;;;;;37.17;3.22;;;;;;;;;;5056530;28;20021;-83
2022/01/06 06:25:38;;;;;;;28.98;3.65;;;;;;;;;;5057580;28;20181;-83
2022/01/06 06:28:04;;;;;;;25.77;2.92;;;;;;;;;;5041297;28;20079;-83
2022/01/06 06:30:32;;;;;;;23.95;2.90;;;;;;;;;;5058055;28;20028;-82
2022/01/06 06:33:00;;;;;;;17.85;2.35;;;;;;;;;;5057638;28;20119;-83
2022/01/06 06:35:26;;;;;;;17.65;2.92;;;;;;;;;;5058123;28;20058;-83
2022/01/06 06:37:52;;;;;;;27.15;3.00;;;;;;;;;;5037942;28;20033;-83
2022/01/06 06:40:22;;;;;;;22.38;2.83;;;;;;;;;;5033868;28;20175;-83
2022/01/06 06:42:48;;;;;;;21.95;3.28;;;;;;;;;;5041773;28;20065;-83
2022/01/06 06:45:15;;;;;;;19.08;3.00;;;;;;;;;;5057333;28;20039;-83
2022/01/06 06:47:42;;;;;;;20.13;2.75;;;;;;;;;;5040286;28;20312;-83
2022/01/06 06:50:09;;;;;;;22.42;3.08;;;;;;;;;;5041306;28;20049;-83
2022/01/06 06:52:35;;;;;;;16.10;2.08;;;;;;;;;;5037237;28;20025;-83
2022/01/06 06:55:02;;;;;;;19.23;2.53;;;;;;;;;;5057440;28;20258;-84
2022/01/06 06:57:28;;;;;;;24.30;2.80;;;;;;;;;;5052800;28;20029;-83
2022/01/06 06:59:54;;;;;;;18.13;2.42;;;;;;;;;;5052269;28;20030;-84
2022/01/06 07:02:20;;;;;;;29.30;3.75;;;;;;;;;;5057333;28;20053;-83
2022/01/06 07:04:46;;;;;;;19.60;3.33;;;;;;;;;;5057010;28;20045;-83
2022/01/06 07:07:12;;;;;;;23.85;2.63;;;;;;;;;;5052007;28;20033;-84
2022/01/06 07:09:39;;;;;;;36.65;5.07;;;;;;;;;;5038514;28;20040;-84
2022/01/06 07:12:05;;;;;;;19.48;3.28;;;;;;;;;;5039945;28;20104;-83
2022/01/06 07:14:32;;;;;;;27.35;2.40;;;;;;;;;;5053863;28;20052;-83
2022/01/06 07:16:58;;;;;;;23.63;4.18;;;;;;;;;;5050805;28;20032;-83
2022/01/06 07:19:24;;;;;;;18.77;2.40;;;;;;;;;;5039884;28;20262;-83
2022/01/06 07:21:50;;;;;;;18.35;2.60;;;;;;;;;;5040830;28;20045;-83
2022/01/06 07:24:18;;;;;;;66.72;9.30;;;;;;;;;;5050324;28;20271;-83
2022/01/06 07:26:44;;;;;;;29.02;3.63;;;;;;;;;;5051335;28;20179;-83
2022/01/06 07:29:11;;;;;;;28.38;5.82;;;;;;;;;;5050439;28;20230;-83
2022/01/06 07:31:37;;;;;;;20.80;3.65;;;;;;;;;;5056381;28;20057;-84
2022/01/06 07:34:03;;;;;;;21.58;3.00;;;;;;;;;;5054787;28;20037;-84
2022/01/06 07:36:29;;;;;;;23.33;2.50;;;;;;;;;;5048973;28;20025;-84
2022/01/06 07:38:55;;;;;;;21.92;3.85;;;;;;;;;;5052677;28;20028;-83
2022/01/06 07:41:21;;;;;;;21.58;3.13;;;;;;;;;;5054920;28;20029;-83
2022/01/06 07:43:48;;;;;;;23.48;2.72;;;;;;;;;;5053463;28;20223;-84
2022/01/06 07:46:14;;;;;;;17.52;2.70;;;;;;;;;;5031773;28;20033;-87
2022/01/06 07:48:57;;;;;;;20.55;3.20;;;;;;;;;;5039824;28;20049;-85
2022/01/06 07:51:27;;;;;;;21.40;3.88;;;;;;;;;;5051483;28;20041;-86
2022/01/06 07:53:53;;;;;;;21.75;2.78;;;;;;;;;;5054387;28;20091;-85
2022/01/06 07:56:20;;;;;;;15.20;2.05;;;;;;;;;;5036426;28;20043;-85
2022/01/06 07:58:46;;;;;;;19.02;2.58;;;;;;;;;;5055200;28;20104;-86
2022/01/06 08:01:13;;;;;;;26.90;2.85;;;;;;;;;;5053669;28;20278;-86
2022/01/06 08:03:39;;;;;;;23.23;4.07;;;;;;;;;;5035734;28;20037;-85
2022/01/06 08:06:06;;;;;;;18.58;2.97;;;1.20;99.90;;;;;;5055800;28;20103;-86
2022/01/06 08:08:33;;;;;;;18.50;3.50;;;;;;;;;;5054448;28;20076;-86
2022/01/06 08:10:59;;;;;;;13.18;2.13;;;;;;;;;;5036607;28;20320;-85
2022/01/06 08:13:25;;;;;;;15.18;2.30;;;;;;;;;;5035454;28;20160;-86
2022/01/06 08:15:51;;;;;;;13.57;1.98;;;;;;;;;;5038528;28;20028;-86
2022/01/06 08:18:17;;;;;;;22.92;2.00;;;;;;;;;;5051316;28;20053;-86
2022/01/06 08:20:43;;;;;;;15.32;2.53;;;;;;;;;;5034187;28;20037;-80
2022/01/06 08:23:10;;;;;;;17.67;1.77;;;2.30;99.90;;;;;;5035440;28;20118;-80
2022/01/06 08:25:36;;;;;;;12.52;1.80;;;;;;;;;;5054854;28;20092;-80
2022/01/06 08:28:03;;;;;;;14.70;1.50;;;;;;;;;;5055546;28;20526;-81
2022/01/06 08:30:29;;;;;;;16.13;1.98;;;;;;;;;;5053914;28;20037;-80
2022/01/06 08:32:55;;;;;;;13.77;2.03;;;;;;;;;;5051705;28;20189;-80
2022/01/06 08:35:25;;;;;;;13.95;2.95;;;2.60;99.90;;;;;;5053355;28;20025;-79
2022/01/06 08:37:51;;;;;;;12.70;1.90;;;;;;;;;;5055864;28;20137;-79
2022/01/06 08:40:18;;;;;;;9.88;1.80;;;;;;;;;;5054664;28;20261;-79
2022/01/06 08:42:46;;;;;;;8.10;1.20;;;;;;;;;;5039306;28;20075;-79
2022/01/06 08:45:13;;;;;;;12.45;1.98;;;;;;;;;;5034676;28;20119;-79
2022/01/06 08:47:39;;;;;;;13.77;2.17;;;;;;;;;;5054421;28;20033;-79
2022/01/06 08:50:06;;;;;;;12.07;1.65;;;;;;;;;;5052488;28;20291;-79
2022/01/06 08:52:34;;;;;;;12.68;2.25;;;;;;;;;;5048238;28;20210;-79
2022/01/06 08:55:00;;;;;;;14.48;2.05;;;;;;;;;;5037210;28;20036;-79
2022/01/06 08:57:26;;;;;;;18.08;1.88;;;;;;;;;;5037715;28;20040;-79
2022/01/06 08:59:53;;;;;;;16.35;1.90;;;;;;;;;;5051862;28;20071;-79
2022/01/06 09:02:19;;;;;;;16.65;1.85;;;;;;;;;;5038370;28;20065;-79
2022/01/06 09:04:45;;;;;;;10.18;1.63;;;;;;;;;;5047218;28;20044;-79
2022/01/06 09:07:11;;;;;;;14.50;1.70;;;;;;;;;;5033442;28;20277;-79
2022/01/06 09:09:41;;;;;;;9.88;1.48;;;;;;;;;;5038638;28;20259;-79
2022/01/06 09:12:08;;;;;;;7.10;1.27;;;;;;;;;;5055292;28;20067;-79
2022/01/06 09:14:34;;;;;;;9.75;1.40;;;;;;;;;;5035157;28;20340;-79
2022/01/06 09:17:01;;;;;;;13.57;1.67;;;;;;;;;;5054714;28;20267;-79
2022/01/06 09:19:27;;;;;;;11.70;1.60;;;;;;;;;;5049009;28;20467;-79
2022/01/06 09:21:53;;;;;;;8.57;1.17;;;;;;;;;;5053935;28;20052;-79
2022/01/06 09:24:19;;;;;;;13.77;2.55;;;;;;;;;;5051678;28;20033;-79
2022/01/06 09:26:45;;;;;;;9.73;1.65;;;;;;;;;;5032245;28;20063;-79
2022/01/06 09:29:14;;;;;;;8.15;0.95;;;4.90;1.00;;;;;;5033812;28;20091;-79
2022/01/06 09:31:41;;;;;;;8.60;1.45;;;5.30;11.90;;;;;;5054479;28;20174;-79
2022/01/06 09:34:08;;;;;;;10.48;2.25;;;;;;;;;;5051125;28;20025;-78
2022/01/06 09:36:38;;;;;;;11.00;1.70;;;6.50;99.90;;;;;;5049832;28;20071;-80
2022/01/06 09:39:06;;;;;;;7.80;1.42;;;;;;;;;;5033623;28;20041;-80
2022/01/06 09:41:32;;;;;;;8.20;1.70;;;;;;;;;;5050484;28;20073;-80
2022/01/06 09:44:02;;;;;;;13.00;1.20;;;;;;;;;;5037430;28;20039;-80
2022/01/06 09:46:28;;;;;;;6.88;1.20;;;;;;;;;;5049584;28;20303;-80
2022/01/06 09:48:59;;;;;;;3.60;0.95;;;;;;;;;;5055249;28;20100;-80
2022/01/06 09:51:26;;;;;;;11.43;1.67;;;;;;;;;;5055013;28;20283;-80
2022/01/06 09:53:57;;;;;;;6.13;1.45;;;;;;;;;;5051057;28;20037;-80
2022/01/06 09:56:24;;;;;;;8.05;1.48;;;;;;;;;;5052823;28;20044;-78
2022/01/06 09:58:50;;;;;;;7.25;1.20;;;;;;;;;;5042366;28;20044;-78
2022/01/06 10:01:16;;;;;;;4.35;1.27;;;;;;;;;;5049869;28;20033;-80
2022/01/06 10:03:48;;;;;;;10.00;1.48;;;;;;;;;;5034127;28;20113;-78
2022/01/06 10:06:22;;;;;;;6.22;1.50;;;;;;;;;;5051929;28;20029;-80
2022/01/06 10:08:55;;;;;;;11.60;2.97;;;8.00;99.90;;;;;;5053305;28;20025;-80
2022/01/06 10:11:26;;;;;;;36.38;9.10;;;;;;;;;;5058544;28;20021;-78
2022/01/06 10:13:58;;;;;;;11.90;2.85;;;;;;;;;;5057616;28;20040;-78
2022/01/06 10:16:24;;;;;;;8.55;1.98;;;;;;;;;;5053098;28;20100;-78
2022/01/06 10:18:55;;;;;;;7.85;1.90;;;;;;;;;;5056185;28;20044;-78
2022/01/06 10:21:21;;;;;;;10.70;1.63;;;;;;;;;;5054237;28;20143;-79
2022/01/06 10:23:58;;;;;;;7.10;0.90;;;;;;;;;;5053151;28;20070;-79
2022/01/06 10:26:24;;;;;;;3.67;1.10;;;;;;;;;;5058996;28;20198;-78
2022/01/06 10:28:54;;;;;;;3.40;0.93;;;;;;;;;;5056699;28;20512;-79
2022/01/06 10:31:24;;;;;;;8.60;2.28;;;;;;;;;;5053507;28;20048;-79
2022/01/06 10:33:50;;;;;;;10.75;1.55;;;;;;;;;;5058174;28;20049;-79
2022/01/06 10:36:16;;;;;;;10.18;1.80;;;;;;;;;;5058751;28;20051;-79
2022/01/06 10:38:42;;;;;;;6.32;1.50;;;;;;;;;;5040241;28;20078;-79
2022/01/06 10:41:13;;;;;;;9.63;1.75;;;8.40;99.90;;;;;;5037847;28;20057;-79
2022/01/06 10:43:39;;;;;;;7.78;1.42;;;;;;;;;;5055792;28;20041;-79
2022/01/06 10:46:05;;;;;;;8.18;1.08;;;;;;;;;;5051096;28;20110;-78
2022/01/06 10:48:32;;;;;;;13.82;2.72;;;;;;;;;;5051437;28;20025;-79
2022/01/06 10:50:59;;;;;;;26.92;2.55;;;;;;;;;;5052734;28;20131;-79
2022/01/06 10:53:25;;;;;;;10.70;1.92;;;;;;;;;;5053749;28;20040;-78
2022/01/06 10:55:51;;;;;;;18.73;2.70;;;;;;;;;;5057871;28;20028;-79
2022/01/06 10:58:18;;;;;;;12.68;2.35;;;9.80;99.90;;;;;;5048727;28;20033;-79
2022/01/06 11:01:01;;;;;;;15.02;2.08;;;10.00;99.90;;;;;;5036760;28;20418;-78
2022/01/06 11:03:29;;;;;;;7.47;2.08;;;;;;;;;;5064237;28;20045;-78
2022/01/06 11:05:59;;;;;;;14.00;2.13;;;;;;;;;;5040983;28;20096;-79
2022/01/06 11:08:30;;;;;;;3.95;0.77;;;;;;;;;;5052292;28;20033;-79
2022/01/06 11:13:35;;;;;;;52.63;22.30;;;;;;;;;;5052530;28;20032;-79
2022/01/06 11:16:01;;;;;;;18.73;6.00;;;;;;;;;;5048421;28;20025;-78
2022/01/06 11:18:28;;;;;;;90.47;25.48;;;;;;;;;;5037871;28;20170;-79
2022/01/06 11:21:07;;;;;;;20.27;6.05;;;9.40;99.90;;;;;;5056660;28;20040;-79
2022/01/06 11:23:34;;;;;;;7.25;2.03;;;;;;;;;;5055613;28;21398;-79
2022/01/06 11:26:08;;;;;;;12.45;1.98;;;;;;;;;;5057745;28;20316;-81
2022/01/06 11:28:34;;;;;;;10.00;1.85;;;;;;;;;;5031756;28;20158;-82
2022/01/06 11:31:17;;;;;;;14.20;2.33;;;;;;;;;;5056976;28;20175;-81
2022/01/06 11:33:45;;;;;;;12.48;1.70;;;6.80;1.00;;;;;;5057587;28;20345;-81
2022/01/06 11:36:19;;;;;;;5.28;1.13;;;;;;;;;;5049395;28;20036;-81
2022/01/06 11:38:47;;;;;;;24.83;3.03;;;;;;;;;;5040134;28;20270;-82
2022/01/06 11:41:13;;;;;;;15.50;2.20;;;;;;;;;;5036612;28;20037;-81
2022/01/06 11:43:40;;;;;;;15.43;1.92;;;;;;;;;;5039071;28;20073;-82
2022/01/06 11:46:07;;;;;;;9.32;1.25;;;;;;;;;;5050645;28;20213;-79
2022/01/06 11:48:48;;;;;;;8.23;2.38;;;9.90;99.90;;;;;;5054675;28;20195;-79
2022/01/06 11:51:23;;;;;;;7.88;1.65;;;;;;;;;;5054283;28;20028;-79
2022/01/06 11:53:49;;;;;;;5.22;1.10;;;;;;;;;;5056184;28;20029;-79
2022/01/06 11:56:16;;;;;;;10.05;1.60;;;;;;;;;;5050345;28;20031;-79
2022/01/06 11:58:42;;;;;;;4.50;1.42;;;;;;;;;;5051295;28;20048;-79
2022/01/06 12:01:13;;;;;;;10.82;1.80;;;;;;;;;;5052811;28;20033;-79
2022/01/06 12:03:46;;;;;;;10.05;2.20;;;;;;;;;;5047348;28;20056;-79
2022/01/06 12:06:42;;;;;;;10.07;1.77;;;9.60;99.90;;;;;;5053960;28;20200;-81
2022/01/06 12:09:20;;;;;;;7.40;1.23;;;;;;;;;;5034205;28;20079;-82
2022/01/06 12:11:47;;;;;;;3.33;1.45;;;;;;;;;;5036834;28;20136;-82
2022/01/06 12:14:23;;;;;;;5.80;1.48;;;;;;;;;;5049215;28;20033;-79
2022/01/06 12:16:50;;;;;;;3.70;0.98;;;;;;;;;;5056024;28;20380;-79
2022/01/06 12:19:23;;;;;;;8.25;1.52;;;10.00;1.00;;;;;;5053822;28;20191;-79
2022/01/06 12:21:49;;;;;;;10.57;1.50;;;;;;;;;;5033997;28;20063;-79
2022/01/06 12:24:16;;;;;;;7.43;1.70;;;;;;;;;;5053987;28;20037;-78
2022/01/06 12:26:42;;;;;;;6.20;1.33;;;;;;;;;;5053360;28;20270;-79
2022/01/06 12:29:13;;;;;;;10.40;1.50;;;9.80;1.00;;;;;;5052416;28;20338;-79
2022/01/06 12:31:39;;;;;;;8.85;1.60;;;;;;;;;;5049870;28;20068;-78
2022/01/06 12:34:05;;;;;;;3.60;1.20;;;;;;;;;;5049140;28;20037;-78
2022/01/06 12:36:32;;;;;;;3.47;1.13;;;;;;;;;;5053041;28;20274;-79
2022/01/06 12:39:05;;;;;;;9.70;1.65;;;;;;;;;;5056334;28;20028;-79
2022/01/06 12:41:34;;;;;;;7.57;1.92;;;;;;;;;;5053390;28;20224;-79
2022/01/06 12:44:00;;;;;;;6.53;1.38;;;;;;;;;;5052915;28;20354;-79
2022/01/06 12:46:43;;;;;;;6.35;1.23;;;9.10;99.90;;;;;;5054115;28;20255;-78
2022/01/06 12:49:10;;;;;;;2.30;0.40;;;;;;;;;;5049326;28;20041;-79
2022/01/06 12:51:42;;;;;;;7.78;1.63;;;8.70;99.90;;;;;;5053533;28;20025;-79
2022/01/06 12:54:11;;;;;;;6.93;1.13;;;;;;;;;;5050719;28;20033;-79
2022/01/06 12:56:39;;;;;;;2.55;0.90;;;;;;;;;;5051861;28;21014;-79
2022/01/06 12:59:12;;;;;;;7.07;1.33;;;;;;;;;;5038062;28;20039;-79
2022/01/06 13:01:40;;;;;;;4.35;0.63;;;;;;;;;;5051492;28;20233;-79
2022/01/06 13:04:07;;;;;;;2.63;1.13;;;;;;;;;;5036089;28;20377;-79
2022/01/06 13:06:34;;;;;;;3.60;1.10;;;;;;;;;;5033753;28;20083;-78
2022/01/06 13:09:01;;;;;;;7.22;1.20;;;9.20;99.90;;;;;;5054749;28;20640;-83
2022/01/06 13:11:29;;;;;;;6.60;0.43;;;;;;;;;;5055334;28;20029;-81
2022/01/06 13:13:55;;;;;;;1.98;0.50;;;;;;;;;;5042955;28;20025;-82
2022/01/06 13:16:25;;;;;;;6.40;1.35;;;9.50;99.40;;;;;;5028938;28;20041;-81
2022/01/06 13:18:52;;;;;;;3.75;0.70;;;;;;;;;;5066234;28;20267;-81
2022/01/06 13:21:31;;;;;;;7.82;1.75;;;;;;;;;;5036565;28;20267;-83
2022/01/06 13:23:58;;;;;;;3.58;0.47;;;;;;;;;;5025800;28;20032;-82
2022/01/06 13:26:30;;;;;;;4.38;1.13;;;;;;;;;;5053558;28;20025;-82
2022/01/06 13:28:57;;;;;;;9.02;1.33;;;;;;;;;;5052196;28;20052;-82
2022/01/06 13:31:24;;;;;;;3.80;0.70;;;;;;;;;;5037204;28;20049;-82
2022/01/06 13:33:55;;;;;;;4.57;0.90;;;;;;;;;;5053427;28;20225;-82
2022/01/06 13:36:29;;;;;;;13.30;1.38;;;;;;;;;;5053114;28;20095;-81
2022/01/06 13:39:05;;;;;;;4.72;1.02;;;;;;;;;;5048774;28;20322;-81
2022/01/06 13:41:32;;;;;;;9.27;1.33;;;;;;;;;;5051768;28;20087;-82
2022/01/06 13:43:59;;;;;;;2.03;0.85;;;;;;;;;;5037811;28;20033;-83
2022/01/06 13:46:40;;;;;;;10.88;1.00;;;;;;;;;;5037845;28;20324;-82
2022/01/06 13:52:03;;;;;;;9.90;1.42;;;5.90;99.90;;;;;;5038745;28;20045;-82
2022/01/06 13:54:30;;;;;;;7.57;1.52;;;;;;;;;;5049161;28;20092;-82
2022/01/06 13:57:06;;;;;;;2.95;0.52;;;;;;;;;;5052704;28;20036;-83
2022/01/06 13:59:32;;;;;;;3.80;0.95;;;;;;;;;;5037234;28;20190;-84
2022/01/06 14:01:58;;;;;;;6.22;1.20;;;;;;;;;;5051374;28;20040;-83
2022/01/06 14:04:25;;;;;;;5.50;1.10;;;;;;;;;;5036453;28;20111;-83
2022/01/06 14:06:51;;;;;;;3.50;0.75;;;;;;;;;;5048098;28;20040;-84
2022/01/06 14:09:18;;;;;;;9.98;1.10;;;;;;;;;;5046974;28;20648;-82
2022/01/06 14:11:44;;;;;;;5.65;1.30;;;;;;;;;;5051592;28;20033;-83
2022/01/06 14:14:12;;;;;;;2.00;0.95;;;;;;;;;;5046184;28;20097;-81
2022/01/06 14:16:38;;;;;;;5.15;1.05;;;;;;;;;;5050802;28;20056;-82
2022/01/06 14:19:05;;;;;;;2.53;0.60;;;;;;;;;;5053704;28;20033;-85
2022/01/06 14:21:31;;;;;;;3.40;0.77;;;;;;;;;;5050066;28;20037;-83
2022/01/06 14:23:57;;;;;;;4.00;0.85;;;;;;;;;;5052984;28;20041;-83
2022/01/06 14:26:23;;;;;;;4.75;0.98;;;;;;;;;;5051331;28;20206;-85
2022/01/06 14:28:50;;;;;;;2.33;1.00;;;;;;;;;;5033487;28;20041;-84
2022/01/06 14:31:16;;;;;;;7.80;1.23;;;;;;;;;;5052358;28;20133;-83
2022/01/06 14:33:43;;;;;;;4.85;0.90;;;;;;;;;;5034856;28;20297;-84
2022/01/06 14:36:10;;;;;;;3.85;0.82;;;;;;;;;;5038157;28;20267;-85
2022/01/06 14:38:39;;;;;;;6.07;1.48;;;4.70;99.90;;;;;;5039495;28;20178;-84
2022/01/06 14:41:06;;;;;;;4.15;0.77;;;;;;;;;;5056610;28;20056;-84
2022/01/06 14:43:32;;;;;;;5.45;0.82;;;;;;;;;;5039917;28;20064;-85
2022/01/06 14:45:59;;;;;;;11.45;1.52;;;;;;;;;;5056252;28;20071;-87
2022/01/06 14:48:25;;;;;;;7.82;1.13;;;;;;;;;;5057148;28;20341;-87